CBE weather

Greater Cumberland Regional Airport
Cumberland, Maryland, United States

Public forecast

Using degrees Fahrenheit for public forecast. Weather courtesy of forecast.io.

Current aviation weather report (METAR) for Greater Cumberland Regional Airport

Retrieved 2020/03/31 13:20 UTC (10 minutes ago):

KCBE 311320Z AUTO 01003KT 10SM SCT039 SCT046 OVC060 08/03 A3005 RMK AO2 T00780026

Closest aviation forecast (TAF) to Greater Cumberland Regional Airport

Closest forecast is Eastern WV Regional Airport/Shepherd Field, 38.2 nm (70.7 km) ESE. Retrieved 2020/03/31 12:45 UTC (45 minutes ago):

TAF KMRB 311142Z 3112/0112 35004KT P6SM OVC060 FM311700 05004KT P6SM SCT025 BKN035 FM312100 08005KT P6SM -RA BKN025 OVC050 FM010100 08007KT 4SM -RA BR BKN008 OVC015 FM010700 06004KT 2SM -RA BR OVC008 FM011000 03004KT 4SM BR OVC010